Time;durP1;ratioP1;P1;durP2;ratioP2;P2;SDS_P1;SDS_P2;PMS_P1;PMS_P2;Temp;Humidity;BMP_temperature;BMP_pressure;BME280_temperature;BME280_humidity;BME280_pressure;Samples;Min_cycle;Max_cycle;Signal;HPM_P1;HPM_P2
2020/12/12 00:00:20;;;;;;;52.60;22.20;;;153.60;2252.80;;;;;;5096733;28;20028;-67
2020/12/12 00:02:46;;;;;;;52.15;24.38;;;153.60;2252.80;;;;;;5096638;28;20031;-67
2020/12/12 00:05:12;;;;;;;32.95;17.00;;;153.60;2252.80;;;;;;5097198;28;20052;-68
2020/12/12 00:07:38;;;;;;;27.88;14.15;;;153.60;2252.80;;;;;;5096883;28;20371;-67
2020/12/12 00:10:03;;;;;;;50.45;22.95;;;153.70;2252.80;;;;;;5097133;28;20028;-68
2020/12/12 00:12:30;;;;;;;75.10;32.50;;;153.70;2252.80;;;;;;5096856;28;20028;-67
2020/12/12 00:14:55;;;;;;;52.85;21.83;;;128.80;2252.80;;;;;;5096523;28;20035;-67
2020/12/12 00:17:21;;;;;;;55.67;22.50;;;128.60;2252.80;;;;;;5096980;28;20028;-68
2020/12/12 00:19:47;;;;;;;58.35;24.05;;;128.40;2252.80;;;;;;5096528;28;20024;-68
2020/12/12 00:22:13;;;;;;;49.58;22.45;;;128.20;2252.80;;;;;;5096465;28;20020;-69
2020/12/12 00:24:39;;;;;;;39.58;18.85;;;128.00;2252.80;;;;;;5097051;28;20127;-69
2020/12/12 00:27:05;;;;;;;107.63;51.97;;;128.00;2252.80;;;;;;5096691;28;20078;-69
2020/12/12 00:29:31;;;;;;;31.35;15.55;;;128.00;2252.80;;;;;;5096506;28;20419;-66
2020/12/12 00:31:59;;;;;;;34.17;14.93;;;128.00;2252.80;;;;;;5096677;28;20024;-69
2020/12/12 00:34:26;;;;;;;26.17;13.38;;;103.30;2227.20;;;;;;5099127;28;20107;-68
2020/12/12 00:36:52;;;;;;;22.73;12.05;;;103.30;2227.20;;;;;;5100109;28;20429;-68
2020/12/12 00:39:19;;;;;;;30.38;14.95;;;128.00;2252.80;;;;;;5100257;28;20034;-67
2020/12/12 00:41:46;;;;;;;31.83;17.48;;;103.20;2227.20;;;;;;5099862;28;20052;-68
2020/12/12 00:44:12;;;;;;;37.25;17.92;;;103.20;2227.20;;;;;;5100150;28;20024;-69
2020/12/12 00:46:39;;;;;;;39.10;19.27;;;103.30;2227.20;;;;;;5100139;28;20027;-68
2020/12/12 00:49:07;;;;;;;31.40;15.13;;;103.30;2227.20;;;;;;5099990;28;20032;-68
2020/12/12 00:51:34;;;;;;;32.05;15.35;;;103.30;2227.20;;;;;;5100277;28;20024;-67
2020/12/12 00:54:00;;;;;;;32.22;15.63;;;128.00;2252.80;;;;;;5081796;28;20454;-67
2020/12/12 00:56:26;;;;;;;34.30;16.95;;;128.00;2252.80;;;;;;5099307;28;20043;-68
2020/12/12 00:58:51;;;;;;;26.63;12.77;;;128.10;2252.80;;;;;;5100156;28;20322;-68
2020/12/12 01:01:19;;;;;;;27.67;14.30;;;128.10;2252.80;;;;;;5099784;28;20024;-68
2020/12/12 01:03:45;;;;;;;22.77;12.57;;;128.20;2252.80;;;;;;5099236;28;20434;-67
2020/12/12 01:06:13;;;;;;;18.73;10.63;;;128.30;2252.80;;;;;;5099458;28;20381;-66
2020/12/12 01:08:39;;;;;;;25.83;13.32;;;128.30;2252.80;;;;;;5099740;28;20410;-67
2020/12/12 01:11:06;;;;;;;37.65;17.65;;;128.40;2252.80;;;;;;5099096;28;20445;-68
2020/12/12 01:13:33;;;;;;;37.55;18.25;;;128.30;2252.80;;;;;;5099535;28;20028;-69
2020/12/12 01:16:04;;;;;;;40.65;19.88;;;128.00;2252.80;;;;;;5099582;28;20031;-67
2020/12/12 01:18:30;;;;;;;39.28;19.05;;;103.30;2227.20;;;;;;5099212;28;20048;-66
2020/12/12 01:20:55;;;;;;;40.88;19.33;;;103.20;2227.20;;;;;;5099493;28;20484;-66
2020/12/12 01:23:21;;;;;;;29.23;15.95;;;103.30;2227.20;;;;;;5099171;28;20020;-69
2020/12/12 01:25:47;;;;;;;33.50;16.95;;;128.10;2252.80;;;;;;5099139;28;20039;-67
2020/12/12 01:28:13;;;;;;;25.73;13.38;;;128.20;2252.80;;;;;;5099308;28;20050;-68
2020/12/12 01:30:39;;;;;;;30.60;15.27;;;128.20;2252.80;;;;;;5099259;28;20032;-67
2020/12/12 01:33:04;;;;;;;26.67;14.05;;;128.10;2252.80;;;;;;5099507;28;20024;-66
2020/12/12 01:35:30;;;;;;;23.58;14.13;;;128.00;2252.80;;;;;;5099373;28;20327;-67
2020/12/12 01:37:56;;;;;;;24.77;13.30;;;128.00;2252.80;;;;;;5098541;28;20031;-67
2020/12/12 01:40:22;;;;;;;26.98;13.90;;;128.00;2252.80;;;;;;5098530;28;20077;-67
2020/12/12 01:42:48;;;;;;;25.80;13.20;;;103.30;2227.20;;;;;;5099150;28;20052;-68
2020/12/12 01:45:13;;;;;;;35.25;16.52;;;103.10;2227.20;;;;;;5097621;28;20107;-67
2020/12/12 01:47:39;;;;;;;31.52;16.40;;;103.00;2227.20;;;;;;5098903;28;20231;-67
2020/12/12 01:50:06;;;;;;;27.33;13.73;;;102.90;2227.20;;;;;;5098602;28;20031;-68
2020/12/12 01:52:32;;;;;;;37.92;20.42;;;102.90;2227.20;;;;;;5098872;28;20019;-67
2020/12/12 01:55:00;;;;;;;43.88;22.23;;;102.80;2227.20;;;;;;5098825;28;20030;-67
2020/12/12 01:57:26;;;;;;;32.75;16.58;;;102.70;2227.20;;;;;;5098631;28;20028;-67
2020/12/12 01:59:52;;;;;;;35.53;17.67;;;102.70;2227.20;;;;;;5098323;28;20103;-68
2020/12/12 02:02:22;;;;;;;41.10;19.55;;;102.80;2227.20;;;;;;5099000;28;20028;-68
2020/12/12 02:04:55;;;;;;;28.25;15.25;;;102.70;2227.20;;;;;;5098461;28;20020;-68
2020/12/12 02:07:22;;;;;;;23.50;13.45;;;102.80;2227.20;;;;;;5098563;28;20058;-68
2020/12/12 02:09:49;;;;;;;37.67;18.00;;;102.80;2227.20;;;;;;5098186;28;20308;-67
2020/12/12 02:12:16;;;;;;;39.85;20.30;;;102.70;2227.20;;;;;;5097854;28;20327;-67
2020/12/12 02:14:43;;;;;;;38.65;18.85;;;102.70;2227.20;;;;;;5098205;28;20031;-67
2020/12/12 02:17:10;;;;;;;25.88;13.43;;;102.70;2227.20;;;;;;5098286;28;20423;-68
2020/12/12 02:19:37;;;;;;;20.00;10.00;;;102.80;2227.20;;;;;;5098103;28;20019;-67
2020/12/12 02:22:06;;;;;;;15.18;8.45;;;103.00;2227.20;;;;;;5098083;28;20161;-68
2020/12/12 02:24:36;;;;;;;10.45;5.63;;;103.20;2227.20;;;;;;5098272;28;20024;-67
2020/12/12 02:27:04;;;;;;;19.48;9.88;;;128.30;2252.80;;;;;;5098161;28;20028;-68
2020/12/12 02:29:48;;;;;;;19.50;10.50;;;128.30;2252.80;;;;;;5079912;28;20035;-68
2020/12/12 02:32:14;;;;;;;18.45;10.60;;;128.30;2252.80;;;;;;5080261;28;20308;-67
2020/12/12 02:34:41;;;;;;;15.85;8.63;;;128.30;2252.80;;;;;;5097791;28;20081;-68
2020/12/12 02:37:07;;;;;;;16.10;9.40;;;128.50;2252.80;;;;;;5098196;28;20024;-68
2020/12/12 02:39:33;;;;;;;19.40;11.20;;;128.60;2252.80;;;;;;5097642;28;20024;-66
2020/12/12 02:41:59;;;;;;;19.08;11.05;;;128.70;2252.80;;;;;;5097816;28;20044;-66
2020/12/12 02:44:25;;;;;;;12.20;7.10;;;128.80;2252.80;;;;;;5097832;28;20059;-68
2020/12/12 02:46:50;;;;;;;6.20;4.30;;;128.80;2252.80;;;;;;5098116;28;20032;-67
2020/12/12 02:49:17;;;;;;;4.90;3.30;;;153.70;2252.80;;;;;;5096956;28;20031;-67
2020/12/12 02:51:43;;;;;;;8.05;5.25;;;153.90;2252.80;;;;;;5098046;28;20031;-67
2020/12/12 02:54:09;;;;;;;7.18;4.88;;;154.00;2252.80;;;;;;5098016;28;20063;-67
2020/12/12 02:56:35;;;;;;;6.03;4.03;;;154.00;2252.80;;;;;;5097291;28;20053;-67
2020/12/12 02:59:02;;;;;;;6.10;3.60;;;154.10;2252.80;;;;;;5097971;28;20074;-67
2020/12/12 03:01:28;;;;;;;4.88;3.10;;;153.90;2252.80;;;;;;5097434;28;20386;-67
2020/12/12 03:03:54;;;;;;;6.75;3.63;;;153.90;2252.80;;;;;;5097212;28;20058;-69
2020/12/12 03:06:19;;;;;;;9.35;5.30;;;154.20;2252.80;;;;;;5097588;28;20059;-67
2020/12/12 03:08:45;;;;;;;6.30;3.88;;;153.90;2252.80;;;;;;5097297;28;20031;-68
2020/12/12 03:11:11;;;;;;;6.35;3.88;;;154.00;2252.80;;;;;;5097765;28;20031;-65
2020/12/12 03:13:37;;;;;;;6.50;4.00;;;154.10;2252.80;;;;;;5097123;28;20024;-67
2020/12/12 03:16:03;;;;;;;5.25;3.35;;;154.00;2252.80;;;;;;5096797;28;20036;-67
2020/12/12 03:18:28;;;;;;;5.00;3.13;;;154.20;2252.80;;;;;;5097130;28;20112;-68
2020/12/12 03:20:54;;;;;;;6.47;3.85;;;154.30;2227.20;;;;;;5097640;28;20035;-67
2020/12/12 03:23:20;;;;;;;6.75;4.25;;;154.20;2227.20;;;;;;5096811;28;20089;-67
2020/12/12 03:25:46;;;;;;;6.05;3.85;;;154.20;2252.80;;;;;;5097290;28;20032;-67
2020/12/12 03:28:12;;;;;;;7.18;4.20;;;154.20;2227.20;;;;;;5097254;28;20114;-66
2020/12/12 03:30:38;;;;;;;7.05;4.13;;;154.10;2252.80;;;;;;5097097;28;20046;-68
2020/12/12 03:33:04;;;;;;;7.78;4.57;;;154.20;2252.80;;;;;;5097483;28;20020;-69
2020/12/12 03:35:32;;;;;;;5.45;3.45;;;154.20;2227.20;;;;;;5097157;28;20035;-67
2020/12/12 03:37:59;;;;;;;4.97;3.10;;;154.20;2227.20;;;;;;5097225;28;20375;-67
2020/12/12 03:40:24;;;;;;;6.15;3.70;;;153.90;2252.80;;;;;;5096908;28;20056;-67
2020/12/12 03:42:54;;;;;;;5.00;2.83;;;153.80;2252.80;;;;;;5097040;28;20086;-67
2020/12/12 03:45:21;;;;;;;9.88;5.82;;;153.80;2252.80;;;;;;5097150;28;20085;-68
2020/12/12 03:47:48;;;;;;;10.85;6.53;;;153.90;2252.80;;;;;;5097214;28;20016;-66
2020/12/12 03:50:14;;;;;;;12.55;7.13;;;153.80;2252.80;;;;;;5097381;28;20063;-68
2020/12/12 03:52:41;;;;;;;11.57;6.88;;;153.60;2252.80;;;;;;5097068;28;20073;-67
2020/12/12 03:55:06;;;;;;;17.92;10.35;;;153.60;2252.80;;;;;;5097319;28;20097;-68
2020/12/12 03:57:33;;;;;;;20.35;11.50;;;128.80;2252.80;;;;;;5096968;28;20407;-67
2020/12/12 03:59:59;;;;;;;9.43;5.40;;;128.60;2252.80;;;;;;5096643;28;20027;-66
2020/12/12 04:02:25;;;;;;;16.10;9.60;;;128.60;2252.80;;;;;;5096915;28;20157;-67
2020/12/12 04:04:50;;;;;;;21.52;11.88;;;128.50;2252.80;;;;;;5096430;28;20154;-69
2020/12/12 04:07:16;;;;;;;17.77;10.38;;;128.40;2252.80;;;;;;5096620;28;20028;-67
2020/12/12 04:09:42;;;;;;;12.65;7.57;;;128.40;2252.80;;;;;;5100004;28;20024;-67
2020/12/12 04:12:08;;;;;;;11.20;6.63;;;128.50;2252.80;;;;;;5100253;28;20016;-66
2020/12/12 04:14:34;;;;;;;4.72;2.80;;;128.50;2252.80;;;;;;5100765;28;20020;-66
2020/12/12 04:16:59;;;;;;;5.68;3.30;;;128.60;2252.80;;;;;;5100909;28;20086;-67
2020/12/12 04:19:25;;;;;;;5.07;2.88;;;128.80;2252.80;;;;;;5100451;28;20397;-67
2020/12/12 04:21:51;;;;;;;5.10;3.03;;;153.60;2252.80;;;;;;5100613;28;20048;-70
2020/12/12 04:24:17;;;;;;;4.78;2.90;;;153.80;2252.80;;;;;;5100872;28;20055;-65
2020/12/12 04:26:43;;;;;;;7.15;3.10;;;153.90;2252.80;;;;;;5100523;28;20073;-67
2020/12/12 04:29:09;;;;;;;18.73;9.43;;;153.90;2252.80;;;;;;5100737;28;20081;-68
2020/12/12 04:31:34;;;;;;;23.33;13.85;;;153.60;2252.80;;;;;;5100748;28;20403;-70
2020/12/12 04:34:01;;;;;;;38.65;19.67;;;128.50;2252.80;;;;;;5100405;28;20106;-69
2020/12/12 04:36:26;;;;;;;30.30;15.63;;;128.30;2252.80;;;;;;5099985;28;20076;-67
2020/12/12 04:38:52;;;;;;;19.58;10.80;;;128.30;2252.80;;;;;;5100020;28;20028;-67
2020/12/12 04:41:19;;;;;;;28.55;14.73;;;128.40;2252.80;;;;;;5099391;28;20056;-66
2020/12/12 04:43:45;;;;;;;29.35;15.98;;;128.50;2252.80;;;;;;5099993;28;20097;-67
2020/12/12 04:46:13;;;;;;;15.23;8.00;;;128.70;2252.80;;;;;;5100407;28;20051;-68
2020/12/12 04:48:40;;;;;;;11.82;6.97;;;128.80;2252.80;;;;;;5099867;28;20478;-68
2020/12/12 04:51:06;;;;;;;15.02;7.78;;;128.90;2252.80;;;;;;5099785;28;20032;-67
2020/12/12 04:53:32;;;;;;;8.55;4.65;;;153.60;2252.80;;;;;;5099780;28;20024;-68
2020/12/12 04:56:02;;;;;;;5.18;2.78;;;153.90;2252.80;;;;;;5099917;28;20032;-68
2020/12/12 04:58:29;;;;;;;3.88;2.30;;;154.00;2252.80;;;;;;5100229;28;20353;-68
2020/12/12 05:00:57;;;;;;;4.15;2.28;;;154.20;2227.20;;;;;;5099870;28;20069;-66
2020/12/12 05:03:25;;;;;;;3.72;2.05;;;154.20;2227.20;;;;;;5099761;28;20024;-67
2020/12/12 05:05:53;;;;;;;3.83;2.00;;;154.40;2201.60;;;;;;5099801;28;20104;-68
2020/12/12 05:08:19;;;;;;;3.70;2.17;;;154.50;2201.60;;;;;;5099502;28;20024;-67
2020/12/12 05:10:50;;;;;;;2.80;1.70;;;154.50;2176.00;;;;;;5099412;28;20030;-66
2020/12/12 05:13:28;;;;;;;8.77;4.65;;;179.20;2150.40;;;;;;5099631;28;20024;-67
2020/12/12 05:15:55;;;;;;;10.48;6.10;;;179.30;2176.00;;;;;;5099228;28;20065;-67
2020/12/12 05:18:21;;;;;;;9.15;5.57;;;179.30;2176.00;;;;;;5099823;28;20028;-66
2020/12/12 05:20:47;;;;;;;8.82;4.80;;;154.40;2201.60;;;;;;5099329;28;20114;-68
2020/12/12 05:23:15;;;;;;;91.13;47.20;;;179.30;2176.00;;;;;;5099185;28;20051;-66
2020/12/12 05:25:44;;;;;;;8.38;4.78;;;179.20;2201.60;;;;;;5099422;28;20056;-67
2020/12/12 05:28:11;;;;;;;2.90;1.80;;;179.20;2150.40;;;;;;5099579;28;20066;-68
2020/12/12 05:30:44;;;;;;;3.70;2.60;;;154.50;2150.40;;;;;;5099366;28;20020;-66
2020/12/12 05:33:16;;;;;;;2.50;1.83;;;154.50;2150.40;;;;;;5098999;28;20031;-69
2020/12/12 05:35:42;;;;;;;2.92;1.70;;;179.20;2124.80;;;;;;5099168;28;20077;-68
2020/12/12 05:38:09;;;;;;;3.67;1.77;;;179.20;2124.80;;;;;;5098861;28;20020;-67
2020/12/12 05:40:36;;;;;;;3.25;1.88;;;154.40;2150.40;;;;;;5099389;28;20160;-68
2020/12/12 05:43:04;;;;;;;3.33;1.73;;;154.50;2124.80;;;;;;5098646;28;20044;-67
2020/12/12 05:45:30;;;;;;;3.03;1.75;;;154.50;2124.80;;;;;;5099035;28;20113;-67
2020/12/12 05:47:56;;;;;;;2.40;1.55;;;154.50;2124.80;;;;;;5080760;28;20063;-67
2020/12/12 05:50:23;;;;;;;4.68;1.60;;;154.40;2124.80;;;;;;5098644;28;20024;-67
2020/12/12 05:52:53;;;;;;;2.80;1.60;;;154.30;2124.80;;;;;;5099187;28;20031;-67
2020/12/12 05:55:30;;;;;;;2.75;1.60;;;154.40;2124.80;;;;;;5098767;28;20114;-68
2020/12/12 05:57:56;;;;;;;3.05;1.90;;;154.30;2150.40;;;;;;5098602;28;20304;-67
2020/12/12 06:00:24;;;;;;;2.83;1.52;;;154.30;2150.40;;;;;;5080251;28;20035;-68
2020/12/12 06:02:58;;;;;;;3.75;1.85;;;154.20;2150.40;;;;;;5098654;28;20119;-68
2020/12/12 06:05:25;;;;;;;4.38;2.42;;;154.00;2150.40;;;;;;5099015;28;20032;-67
2020/12/12 06:07:54;;;;;;;3.78;1.98;;;154.00;2150.40;;;;;;5098821;28;20039;-67
2020/12/12 06:10:24;;;;;;;3.10;1.63;;;154.10;2150.40;;;;;;5098875;28;20020;-68
2020/12/12 06:13:05;;;;;;;5.22;3.20;;;154.00;2150.40;;;;;;5098537;28;20032;-68
2020/12/12 06:15:38;;;;;;;9.68;5.00;;;154.10;2150.40;;;;;;5098710;28;20054;-67
2020/12/12 06:18:13;;;;;;;38.60;25.98;;;154.20;2150.40;;;;;;5098177;28;20024;-68
2020/12/12 06:20:40;;;;;;;5.25;3.22;;;154.10;2150.40;;;;;;5098684;28;20024;-67
2020/12/12 06:23:07;;;;;;;20.10;16.00;;;154.20;2150.40;;;;;;5098010;28;20031;-68
2020/12/12 06:25:33;;;;;;;7.95;2.40;;;154.20;2124.80;;;;;;5098285;28;20300;-67
2020/12/12 06:28:01;;;;;;;5.53;4.13;;;154.20;2150.40;;;;;;5098202;28;20093;-68
2020/12/12 06:30:27;;;;;;;3.17;1.70;;;154.40;2124.80;;;;;;5098131;28;20023;-66
2020/12/12 06:33:01;;;;;;;3.05;1.77;;;154.40;2099.20;;;;;;5097598;28;20103;-68
2020/12/12 06:35:34;;;;;;;3.90;2.47;;;154.50;2099.20;;;;;;5097786;28;20377;-68
2020/12/12 06:38:20;;;;;;;93.45;36.40;;;154.50;2099.20;;;;;;5079835;28;20052;-67
2020/12/12 06:40:46;;;;;;;6.43;3.58;;;154.40;2099.20;;;;;;5097796;28;20106;-68
2020/12/12 06:43:32;;;;;;;3.55;2.42;;;154.50;2099.20;;;;;;5097832;28;20024;-67
2020/12/12 06:45:59;;;;;;;217.93;97.90;;;179.30;2099.20;;;;;;5097529;28;20059;-65
2020/12/12 06:48:27;;;;;;;93.93;50.83;;;179.20;2099.20;;;;;;5097781;28;20031;-67
2020/12/12 06:50:56;;;;;;;29.88;21.67;;;179.30;2073.60;;;;;;5098081;28;20031;-66
2020/12/12 06:53:27;;;;;;;4.88;2.85;;;179.30;2073.60;;;;;;5097205;28;20372;-67
2020/12/12 06:56:14;;;;;;;15.85;14.15;;;179.40;2073.60;;;;;;5097117;28;20418;-68
2020/12/12 06:58:42;;;;;;;49.28;39.85;;;179.50;2048.00;;;;;;5097973;28;20589;-68
2020/12/12 07:01:31;;;;;;;103.55;77.22;;;179.60;2073.60;;;;;;5097076;28;20027;-68
2020/12/12 07:04:04;;;;;;;48.55;40.78;;;179.70;2048.00;;;;;;5097927;28;20097;-67
2020/12/12 07:06:31;;;;;;;24.90;22.38;;;179.80;2022.40;;;;;;5097044;28;20049;-67
2020/12/12 07:09:06;;;;;;;20.85;18.75;;;179.80;2022.40;;;;;;5097562;28;20055;-67
2020/12/12 07:11:33;;;;;;;9.10;8.15;;;180.00;2022.40;;;;;;5097245;28;20118;-68
2020/12/12 07:14:00;;;;;;;6.63;5.35;;;180.00;2022.40;;;;;;5097222;28;20315;-67
2020/12/12 07:16:26;;;;;;;6.68;4.28;;;179.80;2022.40;;;;;;5096881;28;20039;-67
2020/12/12 07:18:52;;;;;;;6.32;5.30;;;179.80;2048.00;;;;;;5097697;28;20102;-69
2020/12/12 07:21:18;;;;;;;11.52;8.10;;;179.90;2022.40;;;;;;5097347;28;20051;-66
2020/12/12 07:23:45;;;;;;;5.68;3.45;;;179.70;2048.00;;;;;;5097260;28;20361;-67
2020/12/12 07:26:11;;;;;;;6.30;4.15;;;179.60;2048.00;;;;;;5097308;28;20101;-67
2020/12/12 07:28:38;;;;;;;7.93;4.88;;;179.70;2048.00;;;;;;5097285;28;20032;-67
2020/12/12 07:31:04;;;;;;;7.40;3.97;;;179.40;2073.60;;;;;;5095398;28;20365;-68
2020/12/12 07:33:30;;;;;;;6.78;4.47;;;179.20;2073.60;;;;;;5095910;28;20020;-67
2020/12/12 07:35:56;;;;;;;7.30;4.75;;;179.30;2099.20;;;;;;5095672;28;20024;-66
2020/12/12 07:38:23;;;;;;;8.85;3.42;;;179.30;2099.20;;;;;;5095392;28;20024;-68
2020/12/12 07:40:49;;;;;;;7.25;3.13;;;179.20;2073.60;;;;;;5095197;28;20110;-66
2020/12/12 07:43:15;;;;;;;5.70;2.92;;;179.20;2099.20;;;;;;5097083;28;20156;-67
2020/12/12 07:48:22;;;;;;;11.40;6.55;;;154.40;2150.40;;;;;;5101002;28;20403;-68
2020/12/12 07:50:48;;;;;;;8.15;3.90;;;154.40;2124.80;;;;;;5100853;28;20030;-66
2020/12/12 07:53:15;;;;;;;10.60;5.68;;;154.10;2150.40;;;;;;5082997;28;20105;-67
2020/12/12 07:55:51;;;;;;;9.35;5.50;;;154.30;2124.80;;;;;;5101082;28;20319;-66
2020/12/12 07:58:23;;;;;;;5.60;3.40;;;154.20;2150.40;;;;;;5100593;28;20026;-67
2020/12/12 08:01:04;;;;;;;3.53;2.03;;;154.20;2150.40;;;;;;5101370;28;20028;-67
2020/12/12 08:03:30;;;;;;;3.58;1.95;;;153.90;2176.00;;;;;;5101027;28;20028;-67
2020/12/12 08:06:09;;;;;;;4.65;2.72;;;153.90;2176.00;;;;;;5101265;28;20024;-66
2020/12/12 08:08:38;;;;;;;5.85;2.42;;;154.20;2176.00;;;;;;5101004;28;20050;-68
2020/12/12 08:11:05;;;;;;;4.75;2.97;;;154.30;2150.40;;;;;;5100314;28;20119;-67
2020/12/12 08:13:32;;;;;;;4.72;2.13;;;179.20;2124.80;;;;;;5101092;28;20028;-67
2020/12/12 08:16:16;;;;;;;8.70;4.82;;;154.40;2124.80;;;;;;5100691;28;20040;-67
2020/12/12 08:18:41;;;;;;;8.27;3.67;;;179.30;2124.80;;;;;;5100791;28;20394;-69
2020/12/12 08:21:13;;;;;;;4.63;2.30;;;179.70;2073.60;;;;;;5100344;28;20042;-68
2020/12/12 08:23:40;;;;;;;12.38;7.22;;;179.80;2073.60;;;;;;5100425;28;20022;-69
2020/12/12 08:26:08;;;;;;;4.32;2.33;;;180.10;2022.40;;;;;;5100535;28;20061;-68
2020/12/12 08:28:35;;;;;;;6.85;3.45;;;205.00;1971.20;;;;;;5100538;28;20128;-67
2020/12/12 08:31:18;;;;;;;7.47;3.53;;;205.30;1971.20;;;;;;5100099;28;20311;-67
2020/12/12 08:33:47;;;;;;;7.40;3.40;;;205.30;1945.60;;;;;;5100373;28;20060;-68
2020/12/12 08:36:17;;;;;;;3.77;2.20;;;205.30;1945.60;;;;;;5100610;28;20085;-67
2020/12/12 08:38:55;;;;;;;4.45;2.33;;;205.60;1920.00;;;;;;5100083;28;20328;-68
2020/12/12 08:41:27;;;;;;;7.20;3.88;;;205.60;1894.40;;;;;;5100187;28;20063;-67
2020/12/12 08:43:53;;;;;;;14.55;6.25;;;230.40;1894.40;;;;;;5100325;28;20027;-67
2020/12/12 08:46:19;;;;;;;8.70;4.30;;;230.50;1894.40;;;;;;5099553;28;20028;-68
2020/12/12 08:48:45;;;;;;;3.92;2.20;;;230.60;1868.80;;;;;;5099915;28;20104;-67
2020/12/12 08:51:11;;;;;;;4.35;2.40;;;230.60;1868.80;;;;;;5100408;28;20035;-67
2020/12/12 08:53:44;;;;;;;6.30;3.25;;;230.70;1843.20;;;;;;5099142;28;20335;-68
2020/12/12 08:56:15;;;;;;;6.40;3.45;;;230.80;1843.20;;;;;;5099880;28;20032;-69
2020/12/12 08:58:45;;;;;;;4.70;2.97;;;230.90;1843.20;;;;;;5099881;28;20074;-68
2020/12/12 09:01:29;;;;;;;4.82;2.53;;;231.20;1792.00;;;;;;5100190;28;20035;-69
2020/12/12 09:04:08;;;;;;;18.40;9.23;;;231.20;1792.00;;;;;;5100168;28;20028;-68
2020/12/12 09:06:47;;;;;;;9.18;4.47;;;230.70;1843.20;;;;;;5099597;28;20407;-67
2020/12/12 09:09:30;;;;;;;7.10;3.35;;;231.10;1792.00;;;;;;5099941;28;20027;-67
2020/12/12 09:12:18;;;;;;;5.30;3.42;;;230.50;1817.60;;;;;;5099151;28;20339;-68
2020/12/12 09:14:44;;;;;;;4.63;2.90;;;230.80;1792.00;;;;;;5097961;28;20339;-68
2020/12/12 09:17:14;;;;;;;6.80;3.58;;;231.00;1766.40;;;;;;5097152;28;20036;-66
2020/12/12 09:19:40;;;;;;;5.22;2.95;;;230.60;1817.60;;;;;;5098384;28;20079;-67
2020/12/12 09:22:08;;;;;;;19.17;11.55;;;230.70;1766.40;;;;;;5097416;28;20034;-68
2020/12/12 09:24:34;;;;;;;142.50;79.85;;;205.70;1843.20;;;;;;5097163;28;20038;-68
2020/12/12 09:27:00;;;;;;;11.80;8.07;;;205.60;1868.80;;;;;;5098236;28;20061;-67
2020/12/12 09:29:26;;;;;;;9.57;4.03;;;205.50;1868.80;;;;;;5099286;28;20411;-66
2020/12/12 09:31:57;;;;;;;19.48;9.90;;;205.20;1868.80;;;;;;5099131;28;20031;-69
2020/12/12 09:34:24;;;;;;;15.88;5.60;;;205.20;1920.00;;;;;;5099145;28;20016;-66
2020/12/12 09:37:04;;;;;;;24.23;7.45;;;205.50;1868.80;;;;;;5098832;28;20119;-67
2020/12/12 09:39:30;;;;;;;21.02;9.07;;;205.40;1868.80;;;;;;5099229;28;20020;-67
2020/12/12 09:41:59;;;;;;;13.95;4.72;;;205.10;1920.00;;;;;;5097048;28;20062;-66
2020/12/12 09:44:28;;;;;;;10.68;5.00;;;205.30;1868.80;;;;;;5097878;28;20385;-67
2020/12/12 09:46:54;;;;;;;13.73;4.93;;;204.80;1920.00;;;;;;5098966;28;20028;-67
2020/12/12 09:49:21;;;;;;;7.65;3.17;;;205.00;1920.00;;;;;;5098966;28;20035;-67
2020/12/12 09:51:48;;;;;;;8.15;3.90;;;205.10;1894.40;;;;;;5095664;28;20086;-67
2020/12/12 09:54:14;;;;;;;11.38;4.13;;;205.20;1868.80;;;;;;5097735;28;20022;-66
2020/12/12 09:56:41;;;;;;;9.60;3.05;;;205.50;1868.80;;;;;;5098162;28;20430;-67
2020/12/12 09:59:07;;;;;;;6.28;2.20;;;205.60;1843.20;;;;;;5098166;28;20042;-66
2020/12/12 10:01:33;;;;;;;22.08;11.68;;;205.00;1894.40;;;;;;5098051;28;20056;-68
2020/12/12 10:03:59;;;;;;;27.60;15.70;;;205.10;1920.00;;;;;;5098468;28;20107;-68
2020/12/12 10:06:25;;;;;;;141.43;75.35;;;205.30;1894.40;;;;;;5096663;28;20459;-69
2020/12/12 10:08:50;;;;;;;10.80;5.18;;;205.50;1868.80;;;;;;5097542;28;20438;-69
2020/12/12 10:11:19;;;;;;;4.95;2.92;;;205.30;1868.80;;;;;;5097190;28;20028;-68
2020/12/12 10:13:45;;;;;;;44.45;25.98;;;205.10;1894.40;;;;;;5098255;28;20024;-70
2020/12/12 10:16:11;;;;;;;55.42;36.15;;;205.50;1868.80;;;;;;5097580;28;20054;-67
2020/12/12 10:18:37;;;;;;;62.30;40.55;;;205.60;1868.80;;;;;;5097674;28;20035;-67
2020/12/12 10:21:09;;;;;;;23.45;19.17;;;205.70;1843.20;;;;;;5098281;28;20023;-68
2020/12/12 10:23:35;;;;;;;25.90;20.88;;;230.40;1843.20;;;;;;5097750;28;20016;-68
2020/12/12 10:26:14;;;;;;;11.57;9.27;;;205.60;1868.80;;;;;;5098353;28;20028;-67
2020/12/12 10:28:51;;;;;;;16.35;11.73;;;205.70;1843.20;;;;;;5098183;28;20027;-66
2020/12/12 10:31:18;;;;;;;3.55;2.00;;;205.70;1868.80;;;;;;5091403;28;20023;-67
2020/12/12 10:33:43;;;;;;;11.82;7.38;;;205.70;1817.60;;;;;;5095624;28;20031;-69
2020/12/12 10:36:09;;;;;;;18.50;16.58;;;230.40;1843.20;;;;;;5096138;28;20042;-69
2020/12/12 10:38:35;;;;;;;9.10;7.32;;;230.50;1843.20;;;;;;5097411;28;20052;-68
2020/12/12 10:41:11;;;;;;;5.20;3.40;;;230.40;1843.20;;;;;;5096891;28;20028;-67
2020/12/12 10:43:36;;;;;;;4.55;2.60;;;230.40;1843.20;;;;;;5096174;28;20409;-68
2020/12/12 10:46:02;;;;;;;6.50;4.28;;;230.50;1817.60;;;;;;5097238;28;20116;-69
2020/12/12 10:48:28;;;;;;;6.00;2.65;;;230.70;1792.00;;;;;;5097960;28;20111;-69
2020/12/12 10:50:54;;;;;;;3.03;1.27;;;205.70;1817.60;;;;;;5097681;28;20027;-69
2020/12/12 10:53:20;;;;;;;7.32;4.22;;;205.40;1868.80;;;;;;5096882;28;20035;-69
2020/12/12 10:55:46;;;;;;;11.63;3.65;;;205.00;1894.40;;;;;;5095342;28;20043;-68
2020/12/12 10:58:11;;;;;;;11.32;4.28;;;205.00;1920.00;;;;;;5095993;28;20072;-69
2020/12/12 11:00:42;;;;;;;24.58;7.00;;;204.90;1920.00;;;;;;5096793;28;20110;-67
2020/12/12 11:03:18;;;;;;;13.60;5.00;;;204.80;1945.60;;;;;;5097500;28;20031;-68
2020/12/12 11:05:50;;;;;;;13.00;4.80;;;179.90;1971.20;;;;;;5078641;28;20097;-68
2020/12/12 11:08:24;;;;;;;6.47;3.20;;;179.70;1996.80;;;;;;5097152;28;20020;-69
2020/12/12 11:10:56;;;;;;;7.90;2.22;;;179.90;1971.20;;;;;;5097651;28;20362;-68
2020/12/12 11:13:22;;;;;;;4.32;1.10;;;180.10;1945.60;;;;;;5096887;28;20486;-69
2020/12/12 11:15:48;;;;;;;5.47;2.22;;;205.20;1894.40;;;;;;5097498;28;20024;-68
2020/12/12 11:18:14;;;;;;;11.73;2.85;;;205.30;1894.40;;;;;;5095084;28;20102;-68
2020/12/12 11:20:40;;;;;;;3.65;1.30;;;205.70;1843.20;;;;;;5096036;28;20024;-69
2020/12/12 11:23:06;;;;;;;1.80;0.80;;;230.40;1817.60;;;;;;5096859;28;20371;-68
2020/12/12 11:25:32;;;;;;;3.90;1.38;;;230.40;1817.60;;;;;;5095982;28;20027;-68
2020/12/12 11:28:04;;;;;;;1.75;0.88;;;205.30;1868.80;;;;;;5088385;28;20021;-69
2020/12/12 11:30:36;;;;;;;6.63;3.13;;;205.40;1843.20;;;;;;5076833;28;20043;-69
2020/12/12 11:33:06;;;;;;;5.20;1.67;;;205.30;1868.80;;;;;;5076449;28;20094;-68
2020/12/12 11:35:40;;;;;;;1.67;0.90;;;205.40;1868.80;;;;;;5076698;28;20021;-68
2020/12/12 11:38:32;;;;;;;2.70;1.35;;;205.40;1894.40;;;;;;5076531;28;20028;-68
2020/12/12 11:41:17;;;;;;;2.60;1.30;;;205.40;1868.80;;;;;;5076591;28;20052;-67
2020/12/12 11:46:37;;;;;;;8.30;6.55;;;205.40;1868.80;;;;;;5076162;28;20039;-68
2020/12/12 11:51:59;;;;;;;4.72;2.92;;;205.70;1843.20;;;;;;5051644;28;20371;-71
2020/12/12 11:54:31;;;;;;;9.95;6.03;;;205.70;1817.60;;;;;;5052584;28;20039;-67
2020/12/12 11:57:04;;;;;;;5.40;3.33;;;230.40;1817.60;;;;;;5054413;28;20048;-70
2020/12/12 11:59:31;;;;;;;6.88;4.47;;;230.40;1817.60;;;;;;5054399;28;20032;-68
2020/12/12 12:02:00;;;;;;;6.57;4.63;;;230.40;1817.60;;;;;;5054174;28;20344;-68
2020/12/12 12:04:35;;;;;;;3.40;2.15;;;230.40;1817.60;;;;;;5054405;28;20025;-68
2020/12/12 12:07:05;;;;;;;3.00;1.70;;;230.40;1817.60;;;;;;5054552;28;20040;-68
2020/12/12 12:09:43;;;;;;;7.68;6.05;;;205.70;1843.20;;;;;;5053544;28;20037;-68
2020/12/12 12:12:21;;;;;;;12.60;10.60;;;230.50;1817.60;;;;;;5054203;28;20028;-68
2020/12/12 12:14:57;;;;;;;12.00;7.20;;;230.40;1817.60;;;;;;5070837;28;20028;-69
2020/12/12 12:17:29;;;;;;;10.73;7.90;;;230.50;1817.60;;;;;;5054226;28;20172;-68
2020/12/12 12:19:59;;;;;;;8.45;5.57;;;230.40;1843.20;;;;;;5054415;28;20029;-70
2020/12/12 12:22:29;;;;;;;6.55;4.47;;;230.50;1817.60;;;;;;5053690;28;20130;-70
2020/12/12 12:24:58;;;;;;;8.70;5.32;;;230.60;1817.60;;;;;;5054388;28;20052;-70